Time;durP1;ratioP1;P1;durP2;ratioP2;P2;SDS_P1;SDS_P2;PMS_P1;PMS_P2;Temp;Humidity;BMP_temperature;BMP_pressure;BME280_temperature;BME280_humidity;BME280_pressure;Samples;Min_cycle;Max_cycle;Signal;HPM_P1;HPM_P2
2022/04/29 00:00:30;;;;;;;14.57;6.90;;;;;;;;;;5030392;28;20054;-70
2022/04/29 00:02:56;;;;;;;15.75;6.90;;;;;;;;;;5045199;28;20045;-70
2022/04/29 00:05:24;;;;;;;15.27;7.60;;;;;;;;;;5024685;28;20527;-70
2022/04/29 00:07:50;;;;;;;16.00;7.33;;;;;;;;;;5033277;28;20400;-70
2022/04/29 00:10:16;;;;;;;15.40;7.40;;;;;;;;;;5032228;28;20553;-70
2022/04/29 00:12:43;;;;;;;15.80;6.63;;;;;;;;;;5030648;28;20048;-70
2022/04/29 00:15:11;;;;;;;24.98;6.70;;;;;;;;;;5027840;28;20477;-70
2022/04/29 00:17:37;;;;;;;13.98;6.93;;;;;;;;;;5028854;28;20037;-69
2022/04/29 00:20:04;;;;;;;17.08;7.00;;;;;;;;;;5028938;28;20084;-69
2022/04/29 00:22:31;;;;;;;12.30;6.15;;;;;;;;;;5029779;28;20286;-69
2022/04/29 00:24:57;;;;;;;21.73;7.65;;;;;;;;;;5029151;28;20493;-69
2022/04/29 00:27:23;;;;;;;14.82;7.22;;;;;;;;;;5011163;28;20056;-69
2022/04/29 00:29:49;;;;;;;16.13;7.53;;;;;;;;;;5016580;28;20087;-70
2022/04/29 00:32:15;;;;;;;15.25;7.25;;;;;;;;;;5048788;28;20033;-69
2022/04/29 00:34:40;;;;;;;17.30;7.57;;;;;;;;;;5048737;28;20037;-69
2022/04/29 00:37:06;;;;;;;14.77;6.63;;;;;;;;;;5033222;28;20477;-69
2022/04/29 00:39:33;;;;;;;15.70;7.10;;;;;;;;;;5025840;28;20579;-69
2022/04/29 00:41:59;;;;;;;11.07;7.05;;;;;;;;;;5043179;28;20084;-69
2022/04/29 00:44:25;;;;;;;17.45;7.47;;;;;;;;;;5046158;28;20045;-69
2022/04/29 00:46:51;;;;;;;14.93;7.05;;;;;;;;;;5010993;28;20103;-69
2022/04/29 00:49:17;;;;;;;14.15;7.05;;;;;;;;;;5034391;28;20070;-70
2022/04/29 00:51:45;;;;;;;15.57;7.10;;;;;;;;;;5018326;28;20045;-70
2022/04/29 00:54:15;;;;;;;20.33;8.30;;;;;;;;;;5033116;28;20049;-70
2022/04/29 00:56:42;;;;;;;16.63;7.07;;;;;;;;;;5018824;28;20053;-70
2022/04/29 00:59:15;;;;;;;21.00;7.10;;;;;;;;;;5024135;28;20053;-70
2022/04/29 01:01:44;;;;;;;18.60;7.47;;;;;;;;;;5029393;28;20060;-70
2022/04/29 01:04:12;;;;;;;14.10;7.90;;;;;;;;;;5015512;28;20045;-69
2022/04/29 01:06:38;;;;;;;14.33;6.47;;;;;;;;;;5010829;28;20060;-70
2022/04/29 01:09:04;;;;;;;13.02;5.93;;;;;;;;;;5010694;28;20100;-70
2022/04/29 01:11:30;;;;;;;15.70;6.60;;;;;;;;;;5010992;28;20257;-69
2022/04/29 01:13:56;;;;;;;19.38;7.93;;;;;;;;;;5015631;28;20481;-70
2022/04/29 01:16:22;;;;;;;15.75;6.90;;;;;;;;;;5028180;28;20127;-70
2022/04/29 01:18:50;;;;;;;15.90;6.57;;;;;;;;;;5017583;28;20420;-69
2022/04/29 01:21:16;;;;;;;11.90;6.50;;;;;;;;;;5024362;28;20041;-69
2022/04/29 01:23:43;;;;;;;22.98;7.63;;;;;;;;;;5013086;28;20045;-70
2022/04/29 01:26:10;;;;;;;26.17;8.23;;;;;;;;;;5023128;28;20049;-69
2022/04/29 01:28:36;;;;;;;17.83;6.80;;;;;;;;;;5038892;28;20049;-69
2022/04/29 01:31:03;;;;;;;23.65;7.72;;;;;;;;;;5012617;28;20106;-70
2022/04/29 01:33:30;;;;;;;14.88;6.38;;;;;;;;;;5045985;28;20052;-69
2022/04/29 01:35:57;;;;;;;15.95;7.55;;;;;;;;;;5046016;28;20053;-70
2022/04/29 01:38:23;;;;;;;23.52;8.38;;;;;;;;;;5028254;28;20103;-69
2022/04/29 01:40:49;;;;;;;19.83;8.10;;;;;;;;;;5046163;28;20446;-70
2022/04/29 01:43:17;;;;;;;16.58;7.88;;;;;;;;;;5028440;28;20045;-70
2022/04/29 01:45:44;;;;;;;12.53;7.07;;;;;;;;;;5027051;28;20056;-70
2022/04/29 01:48:10;;;;;;;15.55;8.07;;;;;;;;;;5031148;28;20042;-69
2022/04/29 01:50:36;;;;;;;21.42;9.05;;;;;;;;;;5013324;28;20044;-69
2022/04/29 01:53:02;;;;;;;24.58;8.70;;;;;;;;;;5043198;28;20056;-70
2022/04/29 01:55:28;;;;;;;20.80;8.00;;;;;;;;;;5009895;28;20502;-69
2022/04/29 01:57:56;;;;;;;16.80;7.63;;;;;;;;;;5010452;28;20046;-68
2022/04/29 02:00:22;;;;;;;19.55;7.60;;;;;;;;;;5010379;28;20108;-69
2022/04/29 02:02:48;;;;;;;22.60;9.18;;;;;;;;;;5011112;28;20503;-70
2022/04/29 02:05:14;;;;;;;19.95;8.07;;;;;;;;;;5030443;28;20122;-70
2022/04/29 02:07:43;;;;;;;19.02;8.70;;;;;;;;;;5030922;28;20084;-69
2022/04/29 02:10:09;;;;;;;22.58;8.52;;;;;;;;;;5029946;28;20510;-69
2022/04/29 02:12:35;;;;;;;19.48;8.48;;;;;;;;;;5031022;28;20048;-69
2022/04/29 02:15:02;;;;;;;17.27;7.70;;;;;;;;;;5012028;28;20136;-69
2022/04/29 02:17:28;;;;;;;17.58;8.38;;;;;;;;;;5028307;28;20058;-69
2022/04/29 02:19:53;;;;;;;20.27;8.07;;;;;;;;;;5031220;28;20088;-69
2022/04/29 02:22:19;;;;;;;16.67;7.57;;;;;;;;;;5031543;28;20041;-69
2022/04/29 02:24:45;;;;;;;21.45;8.18;;;;;;;;;;5023446;28;20056;-69
2022/04/29 02:27:11;;;;;;;19.60;8.00;;;;;;;;;;5051784;28;20553;-69
2022/04/29 02:29:37;;;;;;;17.75;6.97;;;;;;;;;;5035864;28;20107;-69
2022/04/29 02:32:03;;;;;;;18.70;7.97;;;;;;;;;;5031102;28;20102;-69
2022/04/29 02:34:30;;;;;;;19.75;6.97;;;;;;;;;;5025420;28;20045;-69
2022/04/29 02:36:56;;;;;;;17.02;7.90;;;;;;;;;;5014033;28;20060;-70
2022/04/29 02:39:22;;;;;;;19.85;8.05;;;;;;;;;;5014383;28;20038;-69
2022/04/29 02:41:48;;;;;;;21.63;8.07;;;;;;;;;;5040155;28;20563;-69
2022/04/29 02:44:14;;;;;;;20.02;8.50;;;;;;;;;;5019943;28;20286;-69
2022/04/29 02:49:24;;;;;;;18.98;8.02;;;;;;;;;;5028585;28;20045;-69
2022/04/29 02:51:50;;;;;;;16.13;7.60;;;;;;;;;;5013878;28;20408;-69
2022/04/29 02:54:16;;;;;;;26.48;8.30;;;;;;;;;;5019985;28;20045;-69
2022/04/29 02:56:42;;;;;;;15.43;7.63;;;;;;;;;;5028924;28;20044;-69
2022/04/29 02:59:08;;;;;;;17.33;7.75;;;;;;;;;;5042119;28;20045;-69
2022/04/29 03:01:34;;;;;;;18.05;8.02;;;;;;;;;;5030640;28;20409;-69
2022/04/29 03:04:01;;;;;;;23.20;8.60;;;;;;;;;;5013144;28;20041;-69
2022/04/29 03:06:27;;;;;;;23.48;8.88;;;;;;;;;;5037887;28;20368;-69
2022/04/29 03:08:53;;;;;;;17.13;7.55;;;;;;;;;;5030062;28;20365;-69
2022/04/29 03:11:19;;;;;;;24.33;8.82;;;;;;;;;;5030365;28;20056;-68
2022/04/29 03:13:45;;;;;;;19.58;9.18;;;;;;;;;;5033254;28;20052;-68
2022/04/29 03:16:13;;;;;;;17.67;8.32;;;;;;;;;;5013320;28;20045;-68
2022/04/29 03:18:40;;;;;;;34.38;10.93;;;;;;;;;;5032356;28;20053;-68
2022/04/29 03:21:06;;;;;;;21.42;9.88;;;;;;;;;;5023829;28;20057;-69
2022/04/29 03:23:32;;;;;;;25.25;9.68;;;;;;;;;;5028259;28;20488;-69
2022/04/29 03:25:58;;;;;;;29.17;10.15;;;;;;;;;;5029658;28;20141;-69
2022/04/29 03:28:25;;;;;;;24.42;9.30;;;;;;;;;;5029862;28;20037;-69
2022/04/29 03:30:51;;;;;;;19.40;7.90;;;;;;;;;;5028803;28;20128;-69
2022/04/29 03:33:17;;;;;;;29.08;10.07;;;;;;;;;;5012769;28;20150;-69
2022/04/29 03:35:47;;;;;;;38.38;11.80;;;;;;;;;;5039655;28;20377;-69
2022/04/29 03:38:13;;;;;;;31.98;10.35;;;;;;;;;;5015420;28;20041;-69
2022/04/29 03:40:39;;;;;;;27.38;9.35;;;;;;;;;;5012194;28;20141;-69
2022/04/29 03:43:05;;;;;;;50.90;13.93;;;;;;;;;;5029930;28;20313;-69
2022/04/29 03:45:32;;;;;;;44.90;11.07;;;;;;;;;;5011746;28;20437;-69
2022/04/29 03:47:58;;;;;;;26.45;9.80;;;;;;;;;;5011972;28;20404;-69
2022/04/29 03:50:25;;;;;;;43.63;10.55;;;;;;;;;;5011971;28;20049;-69
2022/04/29 03:52:58;;;;;;;21.05;9.68;;;;;;;;;;5023923;28;20053;-69
2022/04/29 03:55:25;;;;;;;22.52;9.40;;;;;;;;;;5031658;28;20049;-69
2022/04/29 03:57:53;;;;;;;120.72;25.10;;;;;;;;;;5032679;28;20136;-69
2022/04/29 04:00:20;;;;;;;38.05;12.32;;;;;;;;;;5029139;28;20070;-69
2022/04/29 04:02:46;;;;;;;42.42;13.25;;;;;;;;;;5049891;28;20086;-69
2022/04/29 04:05:12;;;;;;;29.55;10.30;;;;;;;;;;5012024;28;20053;-70
2022/04/29 04:07:38;;;;;;;64.38;16.60;;;;;;;;;;5012444;28;20610;-69
2022/04/29 04:10:05;;;;;;;41.03;11.63;;;;;;;;;;5011610;28;20408;-70
2022/04/29 04:12:41;;;;;;;53.40;13.77;;;;;;;;;;5011231;28;20087;-70
2022/04/29 04:15:07;;;;;;;32.92;10.27;;;;;;;;;;5029191;28;20163;-70
2022/04/29 04:17:33;;;;;;;27.10;9.32;;;;;;;;;;5029179;28;20485;-69
2022/04/29 04:19:59;;;;;;;30.73;11.18;;;;;;;;;;5009242;28;20204;-69
2022/04/29 04:22:27;;;;;;;59.30;15.48;;;;;;;;;;5042336;28;20049;-69
2022/04/29 04:24:53;;;;;;;106.57;21.88;;;;;;;;;;5026775;28;20504;-69
2022/04/29 04:27:19;;;;;;;67.75;19.08;;;;;;;;;;5039443;28;20048;-69
2022/04/29 04:29:45;;;;;;;59.60;15.30;;;;;;;;;;5049365;28;20106;-69
2022/04/29 04:32:11;;;;;;;92.50;21.50;;;;;;;;;;5014368;28;20520;-70
2022/04/29 04:34:53;;;;;;;48.92;15.48;;;;;;;;;;5028710;28;20095;-69
2022/04/29 04:37:23;;;;;;;28.90;10.88;;;;;;;;;;5030325;28;20049;-70
2022/04/29 04:39:50;;;;;;;30.40;11.60;;;;;;;;;;5030873;28;20041;-70
2022/04/29 04:42:17;;;;;;;27.40;9.70;;;;;;;;;;5016608;28;20049;-69
2022/04/29 04:44:43;;;;;;;30.02;10.38;;;;;;;;;;5026640;28;20367;-69
2022/04/29 04:47:10;;;;;;;56.15;15.10;;;;;;;;;;5029071;28;20137;-70
2022/04/29 04:49:36;;;;;;;30.10;10.13;;;;;;;;;;5010886;28;20045;-69
2022/04/29 04:52:02;;;;;;;23.65;9.48;;;;;;;;;;5011094;28;20036;-69
2022/04/29 04:54:28;;;;;;;59.80;15.88;;;;;;;;;;5019760;28;20564;-69
2022/04/29 04:56:54;;;;;;;24.88;10.23;;;;;;;;;;5011511;28;20489;-69
2022/04/29 04:59:20;;;;;;;25.00;10.40;;;;;;;;;;5028370;28;20076;-69
2022/04/29 05:01:46;;;;;;;24.73;10.35;;;;;;;;;;5010803;28;20053;-69
2022/04/29 05:04:12;;;;;;;24.17;10.75;;;;;;;;;;5017260;28;20049;-69
2022/04/29 05:06:38;;;;;;;23.92;10.43;;;;;;;;;;5048772;28;20052;-69
2022/04/29 05:09:05;;;;;;;50.65;14.32;;;;;;;;;;5019486;28;20485;-69
2022/04/29 05:11:31;;;;;;;33.83;10.55;;;;;;;;;;5010694;28;20409;-69
2022/04/29 05:13:57;;;;;;;23.85;9.40;;;;;;;;;;5010539;28;20042;-69
2022/04/29 05:16:24;;;;;;;21.60;9.38;;;;;;;;;;5010567;28;20053;-69
2022/04/29 05:18:50;;;;;;;38.72;12.15;;;;;;;;;;5034535;28;20128;-70
2022/04/29 05:21:16;;;;;;;24.50;9.50;;;;;;;;;;5028223;28;20472;-70
2022/04/29 05:23:42;;;;;;;23.10;9.93;;;;;;;;;;5029566;28;20657;-69
2022/04/29 05:26:08;;;;;;;24.88;9.55;;;;;;;;;;5028110;28;20041;-69
2022/04/29 05:28:34;;;;;;;22.55;9.15;;;;;;;;;;5027915;28;20046;-70
2022/04/29 05:31:01;;;;;;;18.88;8.68;;;;;;;;;;5028487;28;20456;-69
2022/04/29 05:33:27;;;;;;;20.77;8.70;;;;;;;;;;5039770;28;20067;-70
2022/04/29 05:35:53;;;;;;;27.05;11.05;;;;;;;;;;5015204;28;20072;-69
2022/04/29 05:38:19;;;;;;;22.48;8.95;;;;;;;;;;5012081;28;20128;-70
2022/04/29 05:43:30;;;;;;;61.65;16.80;;;;;;;;;;5028754;28;20139;-70
2022/04/29 05:45:56;;;;;;;25.88;10.13;;;;;;;;;;5032747;28;20049;-70
2022/04/29 05:48:22;;;;;;;37.33;13.00;;;;;;;;;;5010220;28;20427;-70
2022/04/29 05:50:48;;;;;;;29.90;10.38;;;;;;;;;;5028298;28;20049;-70
2022/04/29 05:53:15;;;;;;;20.75;8.13;;;;;;;;;;5013061;28;20041;-70
2022/04/29 05:55:41;;;;;;;14.35;7.47;;;;;;;;;;5022502;28;20098;-70
2022/04/29 05:58:07;;;;;;;26.33;8.35;;;;;;;;;;5040533;28;20041;-69
2022/04/29 06:00:33;;;;;;;21.73;8.80;;;;;;;;;;5031456;28;20041;-70
2022/04/29 06:02:59;;;;;;;17.63;7.78;;;;;;;;;;5031513;28;20037;-71
2022/04/29 06:05:25;;;;;;;27.35;9.45;;;;;;;;;;5031740;28;20046;-70
2022/04/29 06:07:51;;;;;;;13.68;7.68;;;;;;;;;;5042766;28;20098;-70
2022/04/29 06:10:19;;;;;;;17.20;8.27;;;;;;;;;;5025319;28;20041;-70
2022/04/29 06:12:46;;;;;;;31.80;9.30;;;;;;;;;;5024247;28;20208;-70
2022/04/29 06:15:19;;;;;;;19.08;9.13;;;;;;;;;;5025366;28;20120;-70
2022/04/29 06:17:45;;;;;;;13.20;6.78;;;;;;;;;;5005249;28;20071;-70
2022/04/29 06:20:11;;;;;;;39.42;11.20;;;;;;;;;;5023330;28;20054;-70
2022/04/29 06:22:45;;;;;;;19.45;9.05;;;;;;;;;;5024193;28;20052;-70
2022/04/29 06:25:11;;;;;;;17.33;7.78;;;;;;;;;;5022489;28;20045;-69
2022/04/29 06:27:37;;;;;;;16.60;7.78;;;;;;;;;;5040729;28;20047;-70
2022/04/29 06:30:03;;;;;;;32.35;10.57;;;;;;;;;;5041670;28;20053;-70
2022/04/29 06:32:29;;;;;;;20.13;8.18;;;;;;;;;;5035112;28;20049;-70
2022/04/29 06:34:55;;;;;;;15.82;7.80;;;;;;;;;;5037883;28;20040;-70
2022/04/29 06:37:21;;;;;;;24.98;9.65;;;;;;;;;;5038934;28;20049;-70
2022/04/29 06:39:47;;;;;;;25.83;10.15;;;;;;;;;;5017973;28;20488;-70
2022/04/29 06:42:13;;;;;;;23.42;9.23;;;;;;;;;;4995621;28;20060;-71
2022/04/29 06:44:39;;;;;;;17.27;8.80;;;;;;;;;;5034763;28;20045;-71
2022/04/29 06:47:06;;;;;;;18.92;8.50;;;;;;;;;;5041675;28;20084;-70
2022/04/29 06:49:32;;;;;;;19.88;8.38;;;;;;;;;;5011806;28;20049;-71
2022/04/29 06:51:58;;;;;;;23.02;8.30;;;;;;;;;;5012169;28;20045;-70
2022/04/29 06:54:25;;;;;;;14.20;7.15;;;;;;;;;;5030180;28;20480;-72
2022/04/29 06:56:52;;;;;;;19.38;7.78;;;;;;;;;;5029953;28;20477;-71
2022/04/29 06:59:18;;;;;;;11.45;5.88;;;;;;;;;;5022433;28;20111;-71
2022/04/29 07:01:44;;;;;;;14.63;6.38;;;;;;;;;;5019801;28;20040;-71
2022/04/29 07:04:11;;;;;;;10.25;5.35;;;;;;;;;;5029012;28;20050;-69
2022/04/29 07:06:37;;;;;;;16.20;6.35;;;;;;;;;;5034233;28;20088;-70
2022/04/29 07:09:04;;;;;;;13.13;5.40;;;;;;;;;;5042561;28;20384;-69
2022/04/29 07:11:31;;;;;;;11.05;4.85;;;;;;;;;;5039529;28;20049;-69
2022/04/29 07:13:57;;;;;;;15.52;5.88;;;;;;;;;;5014167;28;20136;-70
2022/04/29 07:16:23;;;;;;;42.42;10.82;;;;;;;;;;5033773;28;20521;-69
2022/04/29 07:18:49;;;;;;;13.52;5.45;;;;;;;;;;5047470;28;20049;-69
2022/04/29 07:21:15;;;;;;;12.27;5.22;;;;;;;;;;5044638;28;20041;-70
2022/04/29 07:23:41;;;;;;;9.55;5.43;;;;;;;;;;5029164;28;20049;-70
2022/04/29 07:26:08;;;;;;;9.65;4.97;;;;;;;;;;5029763;28;20061;-70
2022/04/29 07:28:34;;;;;;;9.38;4.95;;;;;;;;;;4994018;28;1019880;-70
2022/04/29 07:31:00;;;;;;;9.63;5.03;;;;;;;;;;5005124;28;20048;-70
2022/04/29 07:33:26;;;;;;;14.50;5.85;;;;;;;;;;5044396;28;20071;-70
2022/04/29 07:44:06;;;;;;;14.00;5.57;;;;;;;;;;5042562;28;20037;-70
2022/04/29 07:46:32;;;;;;;13.15;5.22;;;;;;;;;;5022442;28;20095;-70
2022/04/29 07:48:58;;;;;;;10.85;5.60;;;;;;;;;;5022251;28;20480;-70
2022/04/29 07:51:24;;;;;;;12.68;5.70;;;;;;;;;;5040332;28;20045;-70
2022/04/29 07:53:50;;;;;;;14.60;6.32;;;;;;;;;;5038211;28;20106;-71
2022/04/29 07:56:16;;;;;;;11.02;5.43;;;;;;;;;;5041571;28;20143;-70
2022/04/29 07:58:42;;;;;;;10.35;5.68;;;;;;;;;;5037575;28;20381;-70
2022/04/29 08:01:09;;;;;;;12.52;6.25;;;;;;;;;;5040660;28;20045;-71
2022/04/29 08:03:36;;;;;;;12.65;6.15;;;;;;;;;;5021742;28;20484;-70
2022/04/29 08:06:03;;;;;;;12.85;5.20;;;;;;;;;;5042219;28;20485;-70
2022/04/29 08:08:29;;;;;;;14.65;6.32;;;;;;;;;;5021342;28;20160;-70
2022/04/29 08:10:55;;;;;;;13.15;5.75;;;;;;;;;;5039313;28;20127;-70
2022/04/29 08:13:21;;;;;;;11.02;5.60;;;;;;;;;;5022565;28;20052;-70
2022/04/29 08:15:48;;;;;;;15.27;6.07;;;;;;;;;;5019738;28;20048;-71
2022/04/29 08:18:14;;;;;;;9.95;5.30;;;;;;;;;;5020019;28;20048;-70
2022/04/29 08:20:41;;;;;;;15.38;6.30;;;;;;;;;;5023526;28;20037;-71
2022/04/29 08:23:07;;;;;;;11.30;5.60;;;;;;;;;;5022358;28;20104;-70
2022/04/29 08:25:33;;;;;;;14.10;6.03;;;;;;;;;;5039757;28;20087;-70
2022/04/29 08:28:00;;;;;;;13.95;5.78;;;;;;;;;;5038175;28;20065;-71
2022/04/29 08:30:30;;;;;;;10.68;5.90;;;;;;;;;;5038789;28;20499;-70
2022/04/29 08:32:57;;;;;;;8.25;5.20;;;;;;;;;;5021909;28;20125;-70
2022/04/29 08:35:23;;;;;;;8.77;5.28;;;;;;;;;;5030482;28;20049;-71
2022/04/29 08:37:49;;;;;;;10.13;5.53;;;;;;;;;;5039291;28;20313;-71
2022/04/29 08:40:16;;;;;;;8.30;5.68;;;;;;;;;;5024133;28;20053;-71
2022/04/29 08:42:42;;;;;;;10.25;5.32;;;;;;;;;;5023281;28;20048;-71
2022/04/29 08:45:13;;;;;;;7.80;4.80;;;;;;;;;;5036999;28;20090;-70
2022/04/29 08:47:40;;;;;;;11.85;5.00;;;;;;;;;;5040799;28;20048;-70
2022/04/29 08:50:07;;;;;;;9.77;4.38;;;;;;;;;;5025151;28;20049;-70
2022/04/29 08:52:34;;;;;;;11.32;5.47;;;;;;;;;;5036691;28;20038;-71
2022/04/29 09:00:30;;;;;;;10.82;5.40;;;;;;;;;;5036554;28;20049;-70
2022/04/29 09:02:56;;;;;;;17.10;6.75;;;;;;;;;;5037691;28;20036;-71
2022/04/29 09:05:22;;;;;;;16.05;6.35;;;;;;;;;;5035104;28;20052;-71
2022/04/29 09:07:52;;;;;;;13.40;6.13;;;;;;;;;;5018978;28;20038;-71
2022/04/29 09:10:19;;;;;;;10.55;5.75;;;;;;;;;;5021367;28;20094;-71
2022/04/29 09:12:45;;;;;;;12.07;5.60;;;;;;;;;;5039561;28;20041;-71
2022/04/29 09:15:11;;;;;;;12.98;6.35;;;;;;;;;;5024119;28;20044;-71
2022/04/29 09:17:40;;;;;;;10.07;5.45;;;;;;;;;;5020258;28;20067;-71
2022/04/29 09:20:13;;;;;;;9.57;4.97;;;;;;;;;;5024861;28;20056;-71
2022/04/29 09:22:40;;;;;;;12.60;4.78;;;;;;;;;;5039106;28;20124;-70
2022/04/29 09:25:06;;;;;;;10.85;4.82;;;;;;;;;;5037751;28;20411;-71
2022/04/29 09:27:53;;;;;;;10.95;5.07;;;;;;;;;;5036879;28;20041;-71
2022/04/29 09:30:32;;;;;;;11.77;4.93;;;;;;;;;;5017867;28;20111;-70
2022/04/29 09:32:58;;;;;;;7.80;4.80;;;;;;;;;;5020146;28;20141;-71
2022/04/29 09:35:40;;;;;;;11.07;5.53;;;;;;;;;;5038670;28;20095;-71
2022/04/29 09:40:52;;;;;;;10.18;5.13;;;;;;;;;;5016488;28;20132;-71
2022/04/29 09:43:31;;;;;;;10.68;4.82;;;;;;;;;;5038156;28;20046;-71
2022/04/29 09:46:08;;;;;;;6.50;4.20;;;;;;;;;;5023421;28;20057;-70
2022/04/29 09:48:50;;;;;;;9.15;4.47;;;;;;;;;;5024620;28;20282;-72
2022/04/29 09:51:16;;;;;;;10.38;4.78;;;;;;;;;;5024662;28;20129;-71
2022/04/29 09:53:42;;;;;;;9.68;4.65;;;;;;;;;;5020481;28;20482;-71
2022/04/29 09:56:10;;;;;;;11.38;5.20;;;;;;;;;;5019561;28;20110;-71
2022/04/29 09:58:36;;;;;;;10.10;5.23;;;;;;;;;;5023182;28;20481;-71
2022/04/29 10:01:04;;;;;;;9.80;4.82;;;;;;;;;;5018875;28;20049;-70
2022/04/29 10:03:30;;;;;;;12.00;4.53;;;;;;;;;;5007268;28;20040;-71
2022/04/29 10:05:57;;;;;;;9.30;4.70;;;;;;;;;;5039842;28;20049;-71
2022/04/29 10:08:26;;;;;;;9.18;4.60;;;;;;;;;;5022989;28;20076;-71
2022/04/29 10:10:53;;;;;;;6.00;3.90;;;;;;;;;;5019863;28;20049;-71
2022/04/29 10:13:21;;;;;;;5.13;4.15;;;;;;;;;;5018257;28;20041;-71
2022/04/29 10:15:48;;;;;;;33.77;8.40;;;;;;;;;;5017953;28;20052;-71
2022/04/29 10:21:18;;;;;;;9.13;5.18;;;;;;;;;;5028705;28;20506;-70
2022/04/29 10:23:48;;;;;;;7.85;4.93;;;;;;;;;;5029536;28;20064;-71
2022/04/29 10:26:18;;;;;;;12.55;5.25;;;;;;;;;;5047625;28;20084;-71
2022/04/29 10:28:45;;;;;;;29.10;10.05;;;;;;;;;;5044456;28;20048;-71
2022/04/29 10:31:16;;;;;;;12.35;5.20;;;;;;;;;;5040502;28;20051;-70
2022/04/29 10:33:42;;;;;;;10.65;4.72;;;;;;;;;;5021106;28;20037;-71
2022/04/29 10:36:14;;;;;;;12.52;4.43;;;;;;;;;;5029457;28;20041;-70
2022/04/29 10:38:41;;;;;;;7.72;4.07;;;;;;;;;;5025716;28;20140;-71
2022/04/29 10:41:10;;;;;;;10.82;4.72;;;;;;;;;;5051180;28;20053;-70
2022/04/29 10:43:46;;;;;;;10.57;4.15;;;;;;;;;;5017436;28;20116;-71
2022/04/29 10:46:15;;;;;;;7.13;4.30;;;;;;;;;;5045646;28;20156;-71
2022/04/29 10:48:40;;;;;;;;;;;;;;;;;;5021859;28;20744;-71
2022/04/29 10:51:29;;;;;;;8.73;4.05;;;;;;;;;;5051879;28;19921;-71
2022/04/29 10:53:57;;;;;;;5.20;3.88;;;;;;;;;;5030712;28;20108;-71
2022/04/29 10:56:32;;;;;;;8.50;3.53;;;;;;;;;;5033992;28;20049;-70
2022/04/29 10:59:04;;;;;;;6.10;3.42;;;;;;;;;;5013703;28;20089;-71
2022/04/29 11:01:34;;;;;;;7.55;3.90;;;;;;;;;;5014319;28;20033;-71
2022/04/29 11:04:20;;;;;;;7.28;3.80;;;;;;;;;;5021697;28;20052;-70
2022/04/29 11:06:46;;;;;;;13.75;4.50;;;;;;;;;;5003774;28;20056;-70
2022/04/29 11:09:26;;;;;;;8.70;4.90;;;;;;;;;;5043165;28;20041;-71
2022/04/29 11:11:52;;;;;;;8.90;4.82;;;;;;;;;;5020025;28;20087;-70
2022/04/29 11:14:18;;;;;;;9.15;4.40;;;;;;;;;;5012981;28;20389;-71
2022/04/29 11:16:55;;;;;;;10.10;4.43;;;;;;;;;;5013222;28;20111;-70
2022/04/29 11:19:28;;;;;;;6.15;3.55;;;;;;;;;;5030712;28;20049;-70
2022/04/29 11:24:47;;;;;;;6.10;3.65;;;;;;;;;;5030654;28;20476;-70
2022/04/29 11:27:14;;;;;;;7.65;3.25;;;;;;;;;;5023308;28;20102;-71
2022/04/29 11:29:43;;;;;;;6.93;3.65;;;;;;;;;;5047214;28;20425;-71
2022/04/29 11:32:10;;;;;;;5.90;3.95;;;;;;;;;;5025296;28;20044;-70
2022/04/29 11:34:36;;;;;;;10.10;4.03;;;;;;;;;;5012708;28;20301;-70
2022/04/29 11:37:02;;;;;;;6.85;3.60;;;;;;;;;;5012444;28;20049;-70
2022/04/29 11:39:35;;;;;;;7.15;3.72;;;;;;;;;;5011771;28;20111;-70
2022/04/29 11:42:02;;;;;;;27.50;7.63;;;;;;;;;;5012638;28;20103;-70
2022/04/29 11:44:34;;;;;;;6.85;3.72;;;;;;;;;;5013018;28;20053;-70
2022/04/29 11:47:00;;;;;;;5.53;3.55;;;;;;;;;;5030147;28;20053;-70
2022/04/29 11:49:32;;;;;;;6.25;3.65;;;;;;;;;;5029744;28;20041;-70
2022/04/29 11:52:17;;;;;;;7.97;4.47;;;;;;;;;;5029846;28;20111;-70
2022/04/29 11:55:02;;;;;;;6.03;3.83;;;;;;;;;;5033959;28;20042;-70
2022/04/29 11:57:33;;;;;;;11.35;3.92;;;;;;;;;;5011488;28;20394;-70
2022/04/29 12:00:00;;;;;;;6.60;3.60;;;;;;;;;;5029244;28;20497;-71
2022/04/29 12:02:26;;;;;;;6.32;4.00;;;;;;;;;;5038994;28;20048;-69
2022/04/29 12:04:53;;;;;;;8.00;4.00;;;;;;;;;;5020749;28;20045;-70
2022/04/29 12:07:20;;;;;;;6.30;3.88;;;;;;;;;;5024281;28;20045;-71
2022/04/29 12:09:46;;;;;;;8.02;3.53;;;;;;;;;;5025310;28;20071;-70
2022/04/29 12:12:28;;;;;;;9.82;4.30;;;;;;;;;;4997103;28;20053;-70
2022/04/29 12:15:01;;;;;;;10.40;4.43;;;;;;;;;;5030015;28;20053;-70
2022/04/29 12:17:38;;;;;;;13.23;5.00;;;;;;;;;;5047555;28;20232;-70
2022/04/29 12:20:05;;;;;;;12.02;4.60;;;;;;;;;;5026880;28;20460;-71
2022/04/29 12:22:36;;;;;;;9.20;4.00;;;;;;;;;;5028544;28;20294;-70
2022/04/29 12:25:20;;;;;;;4.30;3.35;;;;;;;;;;5033054;28;20049;-70
2022/04/29 12:27:46;;;;;;;12.63;4.68;;;;;;;;;;5025567;28;20040;-71
2022/04/29 12:36:07;;;;;;;16.15;6.60;;;;;;;;;;5021890;28;20049;-71
2022/04/29 12:38:34;;;;;;;7.00;4.40;;;;;;;;;;5020927;28;20128;-70
2022/04/29 12:41:13;;;;;;;6.82;3.90;;;;;;;;;;5022100;28;20049;-71
2022/04/29 12:43:43;;;;;;;11.68;4.28;;;;;;;;;;5025251;28;20048;-70
2022/04/29 12:46:16;;;;;;;4.28;3.80;;;;;;;;;;5041565;28;20059;-70
2022/04/29 12:48:47;;;;;;;6.40;3.92;;;;;;;;;;5032529;28;20034;-70
2022/04/29 12:51:24;;;;;;;9.25;4.00;;;;;;;;;;5021838;28;20064;-70
2022/04/29 12:53:50;;;;;;;7.20;4.03;;;;;;;;;;5016277;28;20400;-70
2022/04/29 12:56:26;;;;;;;7.82;4.70;;;;;;;;;;5012903;28;20325;-69
2022/04/29 12:58:52;;;;;;;7.72;3.78;;;;;;;;;;5026462;28;20048;-70
2022/04/29 13:01:18;;;;;;;7.53;3.80;;;;;;;;;;5031217;28;20110;-71
2022/04/29 13:03:49;;;;;;;7.28;4.50;;;;;;;;;;5029408;28;20098;-70
2022/04/29 13:06:17;;;;;;;8.52;4.30;;;;;;;;;;5030102;28;20339;-70
2022/04/29 13:08:44;;;;;;;10.25;5.00;;;;;;;;;;5048221;28;20041;-70
2022/04/29 13:11:15;;;;;;;5.30;4.50;;;;;;;;;;5048998;28;20102;-70
2022/04/29 13:13:41;;;;;;;9.13;5.57;;;;;;;;;;5029527;28;20053;-70
2022/04/29 13:16:07;;;;;;;13.45;5.63;;;;;;;;;;5045761;28;20037;-70
2022/04/29 13:18:33;;;;;;;11.50;5.28;;;;;;;;;;5027662;28;20060;-70
2022/04/29 13:21:00;;;;;;;10.10;5.38;;;;;;;;;;5036349;28;20033;-70
2022/04/29 13:23:26;;;;;;;9.95;5.47;;;;;;;;;;5039304;28;20049;-70
2022/04/29 13:25:56;;;;;;;7.10;5.22;;;;;;;;;;5020512;28;20072;-70
2022/04/29 13:28:22;;;;;;;9.95;5.00;;;;;;;;;;5022874;28;20396;-70
2022/04/29 13:30:48;;;;;;;8.38;4.68;;;;;;;;;;5030566;28;20134;-70
2022/04/29 13:33:14;;;;;;;8.52;4.68;;;;;;;;;;5039825;28;20048;-70
2022/04/29 13:35:40;;;;;;;15.30;6.22;;;;;;;;;;5037310;28;20037;-70
2022/04/29 13:38:07;;;;;;;7.05;4.45;;;;;;;;;;5036471;28;20393;-70
2022/04/29 13:40:33;;;;;;;9.93;5.60;;;;;;;;;;5037548;28;20041;-70
2022/04/29 13:43:00;;;;;;;6.75;4.93;;;;;;;;;;5040386;28;20057;-71
2022/04/29 13:45:26;;;;;;;11.10;5.10;;;;;;;;;;5017581;28;20060;-71
2022/04/29 13:47:52;;;;;;;7.10;4.90;;;;;;;;;;5037700;28;20488;-71
2022/04/29 13:50:18;;;;;;;8.52;4.70;;;;;;;;;;5010476;28;20504;-71
2022/04/29 13:55:30;;;;;;;14.93;5.43;;;;;;;;;;5027673;28;20053;-71
2022/04/29 13:57:56;;;;;;;9.32;4.57;;;;;;;;;;5035701;28;20049;-70
2022/04/29 14:00:22;;;;;;;4.78;3.97;;;;;;;;;;5028168;28;20056;-70
2022/04/29 14:02:52;;;;;;;18.67;6.60;;;;;;;;;;5029834;28;20068;-72
2022/04/29 14:05:18;;;;;;;15.10;6.15;;;;;;;;;;5030345;28;20385;-71
2022/04/29 14:07:44;;;;;;;15.20;5.82;;;;;;;;;;5013055;28;20107;-71
2022/04/29 14:10:11;;;;;;;8.57;4.45;;;;;;;;;;5038502;28;20472;-70
2022/04/29 14:12:37;;;;;;;14.10;5.82;;;;;;;;;;5047247;28;20515;-71
2022/04/29 14:15:04;;;;;;;7.05;4.05;;;;;;;;;;5032787;28;20044;-70
2022/04/29 14:17:30;;;;;;;12.75;4.63;;;;;;;;;;5034461;28;20385;-70
2022/04/29 14:19:56;;;;;;;8.32;4.10;;;;;;;;;;5028976;28;20098;-70
2022/04/29 14:22:22;;;;;;;11.55;4.18;;;;;;;;;;5032974;28;20045;-70
2022/04/29 14:24:48;;;;;;;5.95;3.90;;;;;;;;;;5041727;28;20047;-71
2022/04/29 14:27:14;;;;;;;11.10;4.30;;;;;;;;;;5008137;28;20041;-70
2022/04/29 14:29:41;;;;;;;7.43;4.32;;;;;;;;;;5025282;28;20126;-70
2022/04/29 14:32:09;;;;;;;7.30;3.90;;;;;;;;;;5016833;28;20119;-70
2022/04/29 14:34:35;;;;;;;7.47;4.05;;;;;;;;;;5021626;28;20125;-71
2022/04/29 14:37:02;;;;;;;13.20;5.85;;;;;;;;;;5043641;28;20122;-70
2022/04/29 14:39:28;;;;;;;5.82;4.32;;;;;;;;;;5039526;28;20037;-70
2022/04/29 14:41:56;;;;;;;12.82;6.05;;;;;;;;;;5031126;28;20042;-70
2022/04/29 14:44:22;;;;;;;7.03;4.67;;;;;;;;;;5014046;28;20057;-70
2022/04/29 14:46:49;;;;;;;8.10;4.82;;;;;;;;;;5012830;28;20518;-71
2022/04/29 14:49:15;;;;;;;15.27;5.43;;;;;;;;;;5028830;28;20037;-70
2022/04/29 14:51:41;;;;;;;9.45;5.15;;;;;;;;;;5019963;28;20121;-70
2022/04/29 14:54:08;;;;;;;12.45;5.13;;;;;;;;;;5022830;28;20041;-70
2022/04/29 14:56:34;;;;;;;10.60;5.05;;;;;;;;;;5040741;28;20045;-70
2022/04/29 14:59:01;;;;;;;12.52;5.13;;;;;;;;;;5041415;28;20029;-70
2022/04/29 15:01:28;;;;;;;8.75;4.32;;;;;;;;;;5039153;28;20049;-70
2022/04/29 15:03:54;;;;;;;9.68;4.53;;;;;;;;;;5039999;28;20452;-70
2022/04/29 15:06:23;;;;;;;14.43;5.15;;;;;;;;;;5026322;28;20382;-70
2022/04/29 15:08:49;;;;;;;11.38;4.40;;;;;;;;;;5042963;28;20037;-70